sensor_id;sensor_type;location;lat;lon;timestamp;pressure;altitude;pressure_sealevel;temperature;humidity
9423;BME280;65863;49.506;10.400;2024-03-17T00:02:29;98753.47;;;3.89;96.85
9423;BME280;65863;49.506;10.400;2024-03-17T00:05:14;98781.63;;;4.02;96.82
9423;BME280;65863;49.506;10.400;2024-03-17T00:07:59;98763.34;;;3.90;96.71
9423;BME280;65863;49.506;10.400;2024-03-17T00:10:43;98769.84;;;3.87;96.94
9423;BME280;65863;49.506;10.400;2024-03-17T00:13:28;98690.91;;;3.26;97.10
9423;BME280;65863;49.506;10.400;2024-03-17T00:16:13;98756.19;;;3.83;96.31
9423;BME280;65863;49.506;10.400;2024-03-17T00:18:58;98717.63;;;3.44;95.94
9423;BME280;65863;49.506;10.400;2024-03-17T00:21:42;98707.25;;;3.18;95.81
9423;BME280;65863;49.506;10.400;2024-03-17T00:24:26;98768.41;;;3.71;95.83
9423;BME280;65863;49.506;10.400;2024-03-17T00:27:18;98777.47;;;3.92;96.31
9423;BME280;65863;49.506;10.400;2024-03-17T00:30:02;98753.97;;;3.87;95.62
9423;BME280;65863;49.506;10.400;2024-03-17T00:32:46;98790.22;;;3.78;94.84
9423;BME280;65863;49.506;10.400;2024-03-17T00:35:30;98752.72;;;3.68;95.09
9423;BME280;65863;49.506;10.400;2024-03-17T00:38:14;98785.25;;;3.61;95.50
9423;BME280;65863;49.506;10.400;2024-03-17T00:40:59;98789.25;;;3.60;96.46
9423;BME280;65863;49.506;10.400;2024-03-17T00:43:43;98763.63;;;3.30;96.20
9423;BME280;65863;49.506;10.400;2024-03-17T00:46:28;98764.47;;;3.16;97.43
9423;BME280;65863;49.506;10.400;2024-03-17T00:49:13;98759.69;;;3.16;97.14
9423;BME280;65863;49.506;10.400;2024-03-17T00:51:57;98760.44;;;3.17;97.60
9423;BME280;65863;49.506;10.400;2024-03-17T00:54:42;98760.69;;;2.98;97.94
9423;BME280;65863;49.506;10.400;2024-03-17T00:57:26;98747.09;;;3.00;98.72
9423;BME280;65863;49.506;10.400;2024-03-17T01:00:12;98752.09;;;2.96;98.51
9423;BME280;65863;49.506;10.400;2024-03-17T01:02:56;98757.00;;;3.22;98.79
9423;BME280;65863;49.506;10.400;2024-03-17T01:05:41;98781.53;;;3.50;99.01
9423;BME280;65863;49.506;10.400;2024-03-17T01:08:28;98710.63;;;2.87;99.04
9423;BME280;65863;49.506;10.400;2024-03-17T01:11:15;98704.44;;;2.98;99.49
9423;BME280;65863;49.506;10.400;2024-03-17T01:14:02;98774.38;;;3.84;98.59
9423;BME280;65863;49.506;10.400;2024-03-17T01:16:46;98765.09;;;3.67;97.91
9423;BME280;65863;49.506;10.400;2024-03-17T01:19:31;98755.09;;;3.54;98.04
9423;BME280;65863;49.506;10.400;2024-03-17T01:22:16;98745.25;;;3.53;98.37
9423;BME280;65863;49.506;10.400;2024-03-17T01:25:01;98661.81;;;2.95;98.68
9423;BME280;65863;49.506;10.400;2024-03-17T01:27:45;98703.00;;;3.23;97.96
9423;BME280;65863;49.506;10.400;2024-03-17T01:30:29;98710.91;;;3.09;99.12
9423;BME280;65863;49.506;10.400;2024-03-17T01:33:14;98708.16;;;3.09;99.63
9423;BME280;65863;49.506;10.400;2024-03-17T01:35:58;98721.72;;;3.07;99.44
9423;BME280;65863;49.506;10.400;2024-03-17T01:38:41;98706.91;;;3.10;98.98
9423;BME280;65863;49.506;10.400;2024-03-17T01:41:25;98719.78;;;2.93;99.38
9423;BME280;65863;49.506;10.400;2024-03-17T01:44:28;98733.88;;;3.10;99.49
9423;BME280;65863;49.506;10.400;2024-03-17T01:47:13;98707.81;;;2.66;99.62
9423;BME280;65863;49.506;10.400;2024-03-17T01:49:57;98702.88;;;2.40;99.87
9423;BME280;65863;49.506;10.400;2024-03-17T01:52:41;98704.69;;;2.58;100.00
9423;BME280;65863;49.506;10.400;2024-03-17T01:55:27;98727.78;;;2.70;99.79
9423;BME280;65863;49.506;10.400;2024-03-17T01:58:12;98722.75;;;2.54;99.43
9423;BME280;65863;49.506;10.400;2024-03-17T02:00:57;98716.84;;;2.46;99.99
9423;BME280;65863;49.506;10.400;2024-03-17T02:03:41;98703.28;;;2.48;98.85
9423;BME280;65863;49.506;10.400;2024-03-17T02:06:26;98702.72;;;2.29;98.81
9423;BME280;65863;49.506;10.400;2024-03-17T02:09:11;98721.16;;;2.32;99.78
9423;BME280;65863;49.506;10.400;2024-03-17T02:11:56;98681.81;;;1.98;99.46
9423;BME280;65863;49.506;10.400;2024-03-17T02:14:40;98686.03;;;1.94;99.95
9423;BME280;65863;49.506;10.400;2024-03-17T02:17:24;98715.50;;;2.41;99.37
9423;BME280;65863;49.506;10.400;2024-03-17T02:20:12;98691.56;;;2.09;98.57
9423;BME280;65863;49.506;10.400;2024-03-17T02:22:57;98702.84;;;2.20;98.42
9423;BME280;65863;49.506;10.400;2024-03-17T02:25:42;98703.41;;;2.24;98.28
9423;BME280;65863;49.506;10.400;2024-03-17T02:28:27;98663.69;;;1.82;98.47
9423;BME280;65863;49.506;10.400;2024-03-17T02:31:12;98696.94;;;1.97;99.90
9423;BME280;65863;49.506;10.400;2024-03-17T02:33:57;98679.81;;;1.84;100.00
9423;BME280;65863;49.506;10.400;2024-03-17T02:36:41;98705.00;;;1.71;100.00
9423;BME280;65863;49.506;10.400;2024-03-17T02:39:25;98654.78;;;1.33;100.00
9423;BME280;65863;49.506;10.400;2024-03-17T02:42:20;98695.44;;;1.57;100.00
9423;BME280;65863;49.506;10.400;2024-03-17T02:45:05;98687.19;;;1.33;100.00
9423;BME280;65863;49.506;10.400;2024-03-17T02:47:50;98682.22;;;1.22;100.00
9423;BME280;65863;49.506;10.400;2024-03-17T02:50:34;98687.66;;;1.16;100.00
9423;BME280;65863;49.506;10.400;2024-03-17T02:53:18;98671.34;;;0.94;100.00
9423;BME280;65863;49.506;10.400;2024-03-17T02:56:04;98681.75;;;1.24;100.00
9423;BME280;65863;49.506;10.400;2024-03-17T02:58:48;98689.09;;;1.27;100.00
9423;BME280;65863;49.506;10.400;2024-03-17T03:01:35;98699.78;;;1.34;100.00
9423;BME280;65863;49.506;10.400;2024-03-17T03:04:20;98701.88;;;1.24;100.00
9423;BME280;65863;49.506;10.400;2024-03-17T03:07:04;98661.53;;;0.93;100.00
9423;BME280;65863;49.506;10.400;2024-03-17T03:09:50;98680.41;;;0.95;100.00
9423;BME280;65863;49.506;10.400;2024-03-17T03:12:35;98699.56;;;1.23;100.00
9423;BME280;65863;49.506;10.400;2024-03-17T03:15:19;98680.22;;;1.23;100.00
9423;BME280;65863;49.506;10.400;2024-03-17T03:18:04;98623.72;;;0.75;100.00
9423;BME280;65863;49.506;10.400;2024-03-17T03:20:52;98699.09;;;1.24;100.00
9423;BME280;65863;49.506;10.400;2024-03-17T03:23:37;98684.69;;;1.20;100.00
9423;BME280;65863;49.506;10.400;2024-03-17T03:26:22;98688.66;;;1.43;100.00
9423;BME280;65863;49.506;10.400;2024-03-17T03:29:07;98697.34;;;1.51;100.00
9423;BME280;65863;49.506;10.400;2024-03-17T03:31:53;98706.72;;;1.68;100.00
9423;BME280;65863;49.506;10.400;2024-03-17T03:34:37;98691.69;;;1.84;100.00
9423;BME280;65863;49.506;10.400;2024-03-17T03:37:22;98704.63;;;2.08;100.00
9423;BME280;65863;49.506;10.400;2024-03-17T03:40:07;98708.38;;;2.20;100.00
9423;BME280;65863;49.506;10.400;2024-03-17T03:43:00;98700.06;;;2.05;100.00
9423;BME280;65863;49.506;10.400;2024-03-17T03:45:45;98684.78;;;2.10;100.00
9423;BME280;65863;49.506;10.400;2024-03-17T03:48:30;98701.00;;;2.17;100.00
9423;BME280;65863;49.506;10.400;2024-03-17T03:51:14;98669.91;;;2.07;100.00
9423;BME280;65863;49.506;10.400;2024-03-17T03:53:58;98727.53;;;2.53;100.00
9423;BME280;65863;49.506;10.400;2024-03-17T03:56:42;98655.84;;;2.11;100.00
9423;BME280;65863;49.506;10.400;2024-03-17T03:59:27;98726.03;;;2.52;100.00
9423;BME280;65863;49.506;10.400;2024-03-17T04:02:14;98624.53;;;2.04;100.00
9423;BME280;65863;49.506;10.400;2024-03-17T04:04:58;98697.75;;;2.69;100.00
9423;BME280;65863;49.506;10.400;2024-03-17T04:07:42;98700.25;;;2.67;100.00
9423;BME280;65863;49.506;10.400;2024-03-17T04:10:28;98700.66;;;2.60;100.00
9423;BME280;65863;49.506;10.400;2024-03-17T04:13:12;98652.56;;;2.27;100.00
9423;BME280;65863;49.506;10.400;2024-03-17T04:15:57;98644.22;;;2.42;100.00
9423;BME280;65863;49.506;10.400;2024-03-17T04:18:42;98616.38;;;2.16;100.00
9423;BME280;65863;49.506;10.400;2024-03-17T04:21:27;98697.41;;;2.61;100.00
9423;BME280;65863;49.506;10.400;2024-03-17T04:24:12;98708.34;;;2.85;100.00
9423;BME280;65863;49.506;10.400;2024-03-17T04:26:56;98664.66;;;2.45;100.00
9423;BME280;65863;49.506;10.400;2024-03-17T04:29:40;98669.22;;;2.48;100.00
9423;BME280;65863;49.506;10.400;2024-03-17T04:32:24;98658.94;;;2.33;100.00
9423;BME280;65863;49.506;10.400;2024-03-17T04:35:10;98678.25;;;2.43;100.00
9423;BME280;65863;49.506;10.400;2024-03-17T04:37:54;98637.38;;;2.22;100.00
9423;BME280;65863;49.506;10.400;2024-03-17T04:40:41;98681.03;;;2.63;100.00
9423;BME280;65863;49.506;10.400;2024-03-17T04:43:25;98680.78;;;2.82;100.00
9423;BME280;65863;49.506;10.400;2024-03-17T04:46:09;98691.06;;;2.96;100.00
9423;BME280;65863;49.506;10.400;2024-03-17T04:48:55;98689.63;;;3.01;100.00
9423;BME280;65863;49.506;10.400;2024-03-17T04:51:39;98698.97;;;2.83;100.00
9423;BME280;65863;49.506;10.400;2024-03-17T04:54:23;98705.50;;;2.80;100.00
9423;BME280;65863;49.506;10.400;2024-03-17T04:57:09;98698.00;;;2.86;100.00
9423;BME280;65863;49.506;10.400;2024-03-17T04:59:56;98676.41;;;2.75;100.00
9423;BME280;65863;49.506;10.400;2024-03-17T05:02:40;98690.84;;;2.79;100.00
9423;BME280;65863;49.506;10.400;2024-03-17T05:05:24;98674.84;;;2.68;100.00
9423;BME280;65863;49.506;10.400;2024-03-17T05:08:08;98704.63;;;2.73;100.00
9423;BME280;65863;49.506;10.400;2024-03-17T05:11:00;98703.34;;;2.89;100.00
9423;BME280;65863;49.506;10.400;2024-03-17T05:13:44;98699.56;;;2.72;100.00
9423;BME280;65863;49.506;10.400;2024-03-17T05:16:28;98682.47;;;2.94;100.00
9423;BME280;65863;49.506;10.400;2024-03-17T05:19:15;98683.09;;;2.48;100.00
9423;BME280;65863;49.506;10.400;2024-03-17T05:21:58;98697.91;;;2.60;100.00
9423;BME280;65863;49.506;10.400;2024-03-17T05:24:44;98719.19;;;2.68;100.00
9423;BME280;65863;49.506;10.400;2024-03-17T05:27:30;98672.41;;;2.40;100.00
9423;BME280;65863;49.506;10.400;2024-03-17T05:30:14;98651.63;;;2.15;100.00
9423;BME280;65863;49.506;10.400;2024-03-17T05:32:58;98707.97;;;2.78;100.00
9423;BME280;65863;49.506;10.400;2024-03-17T05:35:53;98694.97;;;2.48;100.00
9423;BME280;65863;49.506;10.400;2024-03-17T05:38:37;98710.88;;;2.68;100.00
9423;BME280;65863;49.506;10.400;2024-03-17T05:41:23;98687.66;;;2.51;100.00
9423;BME280;65863;49.506;10.400;2024-03-17T05:44:11;98720.34;;;2.97;100.00
9423;BME280;65863;49.506;10.400;2024-03-17T05:46:55;98723.88;;;3.18;100.00
9423;BME280;65863;49.506;10.400;2024-03-17T05:49:41;98713.75;;;3.15;100.00
9423;BME280;65863;49.506;10.400;2024-03-17T05:52:26;98676.25;;;2.99;100.00
9423;BME280;65863;49.506;10.400;2024-03-17T05:55:10;98692.41;;;3.01;100.00
9423;BME280;65863;49.506;10.400;2024-03-17T05:57:55;98716.19;;;3.28;100.00
9423;BME280;65863;49.506;10.400;2024-03-17T06:00:40;98710.09;;;3.24;100.00
9423;BME280;65863;49.506;10.400;2024-03-17T06:03:24;98740.47;;;3.33;100.00
9423;BME280;65863;49.506;10.400;2024-03-17T06:06:08;98721.50;;;3.32;100.00
9423;BME280;65863;49.506;10.400;2024-03-17T06:08:55;98716.03;;;3.37;100.00
9423;BME280;65863;49.506;10.400;2024-03-17T06:11:39;98723.41;;;3.40;100.00
9423;BME280;65863;49.506;10.400;2024-03-17T06:14:24;98659.66;;;3.05;100.00
9423;BME280;65863;49.506;10.400;2024-03-17T06:17:08;98708.63;;;3.49;100.00
9423;BME280;65863;49.506;10.400;2024-03-17T06:19:53;98701.09;;;3.55;100.00
9423;BME280;65863;49.506;10.400;2024-03-17T06:22:38;98720.50;;;3.76;100.00
9423;BME280;65863;49.506;10.400;2024-03-17T06:25:22;98714.22;;;3.81;100.00
9423;BME280;65863;49.506;10.400;2024-03-17T06:28:11;98687.63;;;3.69;98.51
9423;BME280;65863;49.506;10.400;2024-03-17T06:30:58;98640.09;;;3.14;100.00
9423;BME280;65863;49.506;10.400;2024-03-17T06:33:43;98680.84;;;3.49;100.00
9423;BME280;65863;49.506;10.400;2024-03-17T06:36:27;98677.25;;;3.43;100.00
9423;BME280;65863;49.506;10.400;2024-03-17T06:39:11;98689.50;;;3.57;100.00
9423;BME280;65863;49.506;10.400;2024-03-17T06:42:01;98705.03;;;3.69;100.00
9423;BME280;65863;49.506;10.400;2024-03-17T06:44:46;98694.63;;;3.90;100.00
9423;BME280;65863;49.506;10.400;2024-03-17T06:47:30;98692.06;;;3.87;100.00
9423;BME280;65863;49.506;10.400;2024-03-17T06:50:14;98689.41;;;3.98;100.00
9423;BME280;65863;49.506;10.400;2024-03-17T06:52:58;98687.16;;;4.02;99.29
9423;BME280;65863;49.506;10.400;2024-03-17T06:55:43;98689.78;;;4.11;100.00
9423;BME280;65863;49.506;10.400;2024-03-17T06:58:29;98677.88;;;4.43;99.31
9423;BME280;65863;49.506;10.400;2024-03-17T07:01:15;98682.59;;;4.69;97.65
9423;BME280;65863;49.506;10.400;2024-03-17T07:03:59;98701.06;;;4.72;97.23
9423;BME280;65863;49.506;10.400;2024-03-17T07:06:43;98677.59;;;4.41;96.57
9423;BME280;65863;49.506;10.400;2024-03-17T07:09:27;98683.84;;;4.30;96.55
9423;BME280;65863;49.506;10.400;2024-03-17T07:12:11;98693.44;;;4.29;96.92
9423;BME280;65863;49.506;10.400;2024-03-17T07:14:55;98690.56;;;4.50;97.14
9423;BME280;65863;49.506;10.400;2024-03-17T07:17:39;98625.03;;;4.37;96.43
9423;BME280;65863;49.506;10.400;2024-03-17T07:20:23;98711.97;;;5.30;95.04
9423;BME280;65863;49.506;10.400;2024-03-17T07:23:07;98683.97;;;5.50;92.02
9423;BME280;65863;49.506;10.400;2024-03-17T07:25:56;98678.16;;;5.65;90.39
9423;BME280;65863;49.506;10.400;2024-03-17T07:28:40;98668.59;;;5.83;89.98
9423;BME280;65863;49.506;10.400;2024-03-17T07:31:25;98632.63;;;5.80;89.72
9423;BME280;65863;49.506;10.400;2024-03-17T07:34:09;98703.34;;;6.39;88.77
9423;BME280;65863;49.506;10.400;2024-03-17T07:36:53;98654.19;;;6.19;88.17
9423;BME280;65863;49.506;10.400;2024-03-17T07:39:37;98704.53;;;6.95;87.46
9423;BME280;65863;49.506;10.400;2024-03-17T07:42:21;98609.06;;;6.20;86.01
9423;BME280;65863;49.506;10.400;2024-03-17T07:45:06;98637.44;;;6.36;85.33
9423;BME280;65863;49.506;10.400;2024-03-17T07:47:51;98698.63;;;7.15;85.01
9423;BME280;65863;49.506;10.400;2024-03-17T07:50:36;98677.53;;;7.20;84.18
9423;BME280;65863;49.506;10.400;2024-03-17T07:53:21;98681.25;;;7.39;82.92
9423;BME280;65863;49.506;10.400;2024-03-17T07:56:07;98690.84;;;7.55;81.92
9423;BME280;65863;49.506;10.400;2024-03-17T07:58:53;98681.34;;;7.22;80.10
9423;BME280;65863;49.506;10.400;2024-03-17T08:01:38;98686.31;;;7.47;80.32
9423;BME280;65863;49.506;10.400;2024-03-17T08:04:24;98682.50;;;7.91;79.75
9423;BME280;65863;49.506;10.400;2024-03-17T08:07:07;98662.84;;;8.03;77.04
9423;BME280;65863;49.506;10.400;2024-03-17T08:09:52;98666.94;;;8.32;77.58
9423;BME280;65863;49.506;10.400;2024-03-17T08:12:35;98665.00;;;8.52;76.85
9423;BME280;65863;49.506;10.400;2024-03-17T08:15:20;98682.22;;;8.86;75.25
9423;BME280;65863;49.506;10.400;2024-03-17T08:18:04;98656.75;;;9.09;74.48
9423;BME280;65863;49.506;10.400;2024-03-17T08:20:51;98661.13;;;8.60;74.62
9423;BME280;65863;49.506;10.400;2024-03-17T08:23:37;98653.84;;;8.95;74.28
9423;BME280;65863;49.506;10.400;2024-03-17T08:26:26;98652.84;;;9.18;73.10
9423;BME280;65863;49.506;10.400;2024-03-17T08:29:11;98662.75;;;9.57;72.94
9423;BME280;65863;49.506;10.400;2024-03-17T08:31:55;98644.13;;;9.78;71.71
9423;BME280;65863;49.506;10.400;2024-03-17T08:34:39;98647.81;;;9.87;70.08
9423;BME280;65863;49.506;10.400;2024-03-17T08:37:23;98662.88;;;10.03;70.01
9423;BME280;65863;49.506;10.400;2024-03-17T08:40:11;98675.53;;;9.90;70.97
9423;BME280;65863;49.506;10.400;2024-03-17T08:42:56;98665.25;;;10.12;70.58
9423;BME280;65863;49.506;10.400;2024-03-17T08:45:42;98579.78;;;9.99;70.29
9423;BME280;65863;49.506;10.400;2024-03-17T08:48:27;98669.41;;;10.24;68.67
9423;BME280;65863;49.506;10.400;2024-03-17T08:51:13;98670.81;;;10.77;69.03
9423;BME280;65863;49.506;10.400;2024-03-17T08:53:57;98650.00;;;10.26;67.84
9423;BME280;65863;49.506;10.400;2024-03-17T08:56:41;98655.97;;;10.36;67.58
9423;BME280;65863;49.506;10.400;2024-03-17T08:59:25;98670.09;;;11.03;67.20
9423;BME280;65863;49.506;10.400;2024-03-17T09:02:12;98676.09;;;11.20;65.81
9423;BME280;65863;49.506;10.400;2024-03-17T09:04:57;98667.34;;;10.84;64.55
9423;BME280;65863;49.506;10.400;2024-03-17T09:07:41;98655.66;;;11.33;64.87
9423;BME280;65863;49.506;10.400;2024-03-17T09:10:26;98630.63;;;11.57;64.09
9423;BME280;65863;49.506;10.400;2024-03-17T09:13:18;98659.50;;;11.92;62.50
9423;BME280;65863;49.506;10.400;2024-03-17T09:16:03;98648.91;;;11.84;62.25
9423;BME280;65863;49.506;10.400;2024-03-17T09:18:47;98620.75;;;11.98;60.46
9423;BME280;65863;49.506;10.400;2024-03-17T09:21:31;98590.66;;;11.71;60.20
9423;BME280;65863;49.506;10.400;2024-03-17T09:24:17;98578.94;;;12.02;58.90
9423;BME280;65863;49.506;10.400;2024-03-17T09:27:01;98615.25;;;12.34;55.98
9423;BME280;65863;49.506;10.400;2024-03-17T09:29:49;98628.53;;;12.55;56.02
9423;BME280;65863;49.506;10.400;2024-03-17T09:32:34;98624.31;;;12.40;54.85
9423;BME280;65863;49.506;10.400;2024-03-17T09:35:18;98649.16;;;12.08;55.72
9423;BME280;65863;49.506;10.400;2024-03-17T09:38:03;98644.72;;;11.78;56.63
9423;BME280;65863;49.506;10.400;2024-03-17T09:40:48;98632.22;;;11.65;56.30
9423;BME280;65863;49.506;10.400;2024-03-17T09:43:42;98623.66;;;11.71;55.87
9423;BME280;65863;49.506;10.400;2024-03-17T09:46:28;98637.97;;;11.94;56.14
9423;BME280;65863;49.506;10.400;2024-03-17T09:49:15;98642.28;;;12.37;55.27
9423;BME280;65863;49.506;10.400;2024-03-17T09:52:01;98627.53;;;12.73;54.57
9423;BME280;65863;49.506;10.400;2024-03-17T09:54:45;98619.09;;;12.45;53.94
9423;BME280;65863;49.506;10.400;2024-03-17T09:57:30;98621.94;;;12.23;53.25
9423;BME280;65863;49.506;10.400;2024-03-17T10:00:14;98618.31;;;12.44;52.49
9423;BME280;65863;49.506;10.400;2024-03-17T10:03:00;98624.13;;;12.67;51.57
9423;BME280;65863;49.506;10.400;2024-03-17T10:05:46;98629.44;;;12.50;53.25
9423;BME280;65863;49.506;10.400;2024-03-17T10:08:30;98614.63;;;12.28;52.34
9423;BME280;65863;49.506;10.400;2024-03-17T10:11:19;98625.63;;;12.39;52.68
9423;BME280;65863;49.506;10.400;2024-03-17T10:14:06;98625.03;;;13.35;53.11
9423;BME280;65863;49.506;10.400;2024-03-17T10:16:51;98622.59;;;13.39;51.28
9423;BME280;65863;49.506;10.400;2024-03-17T10:19:38;98633.75;;;13.53;52.32
9423;BME280;65863;49.506;10.400;2024-03-17T10:22:25;98634.91;;;13.57;49.82
9423;BME280;65863;49.506;10.400;2024-03-17T10:25:12;98590.16;;;13.54;50.44
9423;BME280;65863;49.506;10.400;2024-03-17T10:27:56;98561.34;;;13.48;50.78
9423;BME280;65863;49.506;10.400;2024-03-17T10:30:40;98560.16;;;13.27;49.84
9423;BME280;65863;49.506;10.400;2024-03-17T10:33:26;98598.66;;;13.85;50.76
9423;BME280;65863;49.506;10.400;2024-03-17T10:36:17;98600.44;;;13.43;50.01
9423;BME280;65863;49.506;10.400;2024-03-17T10:39:02;98590.50;;;12.69;51.20
9423;BME280;65863;49.506;10.400;2024-03-17T10:41:47;98581.81;;;12.31;52.64
9423;BME280;65863;49.506;10.400;2024-03-17T10:44:35;98587.47;;;12.96;52.18
9423;BME280;65863;49.506;10.400;2024-03-17T10:47:27;98587.22;;;13.23;51.89
9423;BME280;65863;49.506;10.400;2024-03-17T10:50:18;98589.06;;;13.20;50.82
9423;BME280;65863;49.506;10.400;2024-03-17T10:53:04;98611.84;;;13.30;51.85
9423;BME280;65863;49.506;10.400;2024-03-17T10:56:03;98592.53;;;12.90;51.28
9423;BME280;65863;49.506;10.400;2024-03-17T10:58:53;98590.00;;;12.79;51.91
9423;BME280;65863;49.506;10.400;2024-03-17T11:01:41;98583.09;;;12.87;50.61
9423;BME280;65863;49.506;10.400;2024-03-17T11:04:27;98570.41;;;13.09;51.65
9423;BME280;65863;49.506;10.400;2024-03-17T11:07:16;98576.56;;;13.45;49.95
9423;BME280;65863;49.506;10.400;2024-03-17T11:10:01;98586.09;;;13.34;51.22
9423;BME280;65863;49.506;10.400;2024-03-17T11:12:50;98581.59;;;13.31;51.90
9423;BME280;65863;49.506;10.400;2024-03-17T11:21:18;98574.81;;;13.34;50.84
9423;BME280;65863;49.506;10.400;2024-03-17T11:24:04;98573.69;;;12.85;51.41
9423;BME280;65863;49.506;10.400;2024-03-17T11:26:48;98561.03;;;13.67;50.62
9423;BME280;65863;49.506;10.400;2024-03-17T11:29:33;98571.03;;;13.23;50.33
9423;BME280;65863;49.506;10.400;2024-03-17T11:32:26;98562.56;;;13.91;50.94
9423;BME280;65863;49.506;10.400;2024-03-17T11:35:15;98561.03;;;13.74;51.24
9423;BME280;65863;49.506;10.400;2024-03-17T11:38:01;98568.19;;;13.75;51.26
9423;BME280;65863;49.506;10.400;2024-03-17T11:40:45;98560.84;;;13.80;50.63
9423;BME280;65863;49.506;10.400;2024-03-17T11:43:29;98575.16;;;13.90;49.85
9423;BME280;65863;49.506;10.400;2024-03-17T11:46:16;98567.22;;;13.65;51.00
9423;BME280;65863;49.506;10.400;2024-03-17T11:49:04;98570.44;;;13.85;52.12
9423;BME280;65863;49.506;10.400;2024-03-17T11:51:49;98515.50;;;14.17;49.81
9423;BME280;65863;49.506;10.400;2024-03-17T11:54:35;98526.78;;;14.32;49.18
9423;BME280;65863;49.506;10.400;2024-03-17T11:57:25;98537.66;;;14.43;48.85
9423;BME280;65863;49.506;10.400;2024-03-17T12:00:19;98562.16;;;14.41;50.03
9423;BME280;65863;49.506;10.400;2024-03-17T12:03:04;98554.28;;;14.16;50.37
9423;BME280;65863;49.506;10.400;2024-03-17T12:05:48;98521.31;;;14.34;50.93
9423;BME280;65863;49.506;10.400;2024-03-17T12:08:32;98529.78;;;14.03;51.25
9423;BME280;65863;49.506;10.400;2024-03-17T12:11:17;98532.03;;;14.28;50.76
9423;BME280;65863;49.506;10.400;2024-03-17T12:17:09;98528.66;;;14.14;51.11
9423;BME280;65863;49.506;10.400;2024-03-17T12:19:53;98525.28;;;14.16;50.87
9423;BME280;65863;49.506;10.400;2024-03-17T12:22:39;98500.78;;;14.34;50.40
9423;BME280;65863;49.506;10.400;2024-03-17T12:25:26;98516.22;;;15.04;48.15
9423;BME280;65863;49.506;10.400;2024-03-17T12:28:16;98491.56;;;14.97;49.07
9423;BME280;65863;49.506;10.400;2024-03-17T12:31:00;98485.03;;;14.79;50.07
9423;BME280;65863;49.506;10.400;2024-03-17T12:33:45;98498.47;;;14.63;50.08
9423;BME280;65863;49.506;10.400;2024-03-17T12:36:32;98449.53;;;14.45;50.96
9423;BME280;65863;49.506;10.400;2024-03-17T12:39:24;98494.97;;;14.24;51.54
9423;BME280;65863;49.506;10.400;2024-03-17T12:44:58;98507.94;;;14.35;51.11
9423;BME280;65863;49.506;10.400;2024-03-17T12:47:47;98493.78;;;14.42;52.19
9423;BME280;65863;49.506;10.400;2024-03-17T12:50:32;98448.53;;;13.94;51.34
9423;BME280;65863;49.506;10.400;2024-03-17T12:53:16;98505.28;;;14.37;51.05
9423;BME280;65863;49.506;10.400;2024-03-17T12:56:06;98476.56;;;13.92;51.39
9423;BME280;65863;49.506;10.400;2024-03-17T12:59:10;98489.19;;;13.91;51.66
9423;BME280;65863;49.506;10.400;2024-03-17T13:02:13;98481.66;;;13.47;53.98
9423;BME280;65863;49.506;10.400;2024-03-17T13:05:18;98498.78;;;13.72;52.25
9423;BME280;65863;49.506;10.400;2024-03-17T13:08:03;98426.66;;;12.94;53.49
9423;BME280;65863;49.506;10.400;2024-03-17T13:10:48;98485.97;;;13.48;52.38
9423;BME280;65863;49.506;10.400;2024-03-17T13:13:32;98487.28;;;13.86;52.19
9423;BME280;65863;49.506;10.400;2024-03-17T13:16:17;98456.81;;;14.00;51.80
9423;BME280;65863;49.506;10.400;2024-03-17T13:19:01;98471.09;;;14.02;52.40
9423;BME280;65863;49.506;10.400;2024-03-17T13:21:44;98484.28;;;13.91;52.63
9423;BME280;65863;49.506;10.400;2024-03-17T13:24:29;98489.91;;;13.60;53.24
9423;BME280;65863;49.506;10.400;2024-03-17T13:27:13;98471.84;;;13.33;54.52
9423;BME280;65863;49.506;10.400;2024-03-17T13:29:58;98470.34;;;13.55;53.68
9423;BME280;65863;49.506;10.400;2024-03-17T13:32:44;98482.00;;;13.36;53.55
9423;BME280;65863;49.506;10.400;2024-03-17T13:35:31;98482.41;;;13.55;53.81
9423;BME280;65863;49.506;10.400;2024-03-17T13:38:16;98463.97;;;13.47;52.75
9423;BME280;65863;49.506;10.400;2024-03-17T13:41:00;98464.94;;;13.57;54.43
9423;BME280;65863;49.506;10.400;2024-03-17T13:43:44;98480.09;;;14.16;53.25
9423;BME280;65863;49.506;10.400;2024-03-17T13:46:30;98446.69;;;13.81;51.40
9423;BME280;65863;49.506;10.400;2024-03-17T13:49:14;98453.06;;;13.82;51.43
9423;BME280;65863;49.506;10.400;2024-03-17T13:51:58;98443.28;;;13.83;52.30
9423;BME280;65863;49.506;10.400;2024-03-17T13:54:42;98439.44;;;14.19;51.69
9423;BME280;65863;49.506;10.400;2024-03-17T13:57:26;98438.34;;;14.14;52.61
9423;BME280;65863;49.506;10.400;2024-03-17T14:00:11;98422.00;;;13.27;55.09
9423;BME280;65863;49.506;10.400;2024-03-17T14:03:00;98436.34;;;13.84;54.67
9423;BME280;65863;49.506;10.400;2024-03-17T14:05:43;98451.53;;;13.81;53.76
9423;BME280;65863;49.506;10.400;2024-03-17T14:08:28;98378.44;;;13.44;53.30
9423;BME280;65863;49.506;10.400;2024-03-17T14:11:14;98437.03;;;14.15;52.21
9423;BME280;65863;49.506;10.400;2024-03-17T14:13:58;98408.09;;;13.91;52.47
9423;BME280;65863;49.506;10.400;2024-03-17T14:16:42;98429.41;;;13.54;52.79
9423;BME280;65863;49.506;10.400;2024-03-17T14:19:30;98404.94;;;13.64;52.84
9423;BME280;65863;49.506;10.400;2024-03-17T14:22:14;98425.22;;;13.32;53.60
9423;BME280;65863;49.506;10.400;2024-03-17T14:24:58;98396.66;;;13.43;53.95
9423;BME280;65863;49.506;10.400;2024-03-17T14:27:42;98406.59;;;13.21;55.63
9423;BME280;65863;49.506;10.400;2024-03-17T14:30:26;98410.91;;;13.30;55.77
9423;BME280;65863;49.506;10.400;2024-03-17T14:33:10;98390.97;;;12.89;55.71
9423;BME280;65863;49.506;10.400;2024-03-17T14:35:57;98417.28;;;12.99;56.63
9423;BME280;65863;49.506;10.400;2024-03-17T14:38:42;98409.69;;;12.71;56.57
9423;BME280;65863;49.506;10.400;2024-03-17T14:41:30;98384.00;;;12.30;58.01
9423;BME280;65863;49.506;10.400;2024-03-17T14:44:14;98378.66;;;12.48;57.95
9423;BME280;65863;49.506;10.400;2024-03-17T14:46:58;98400.84;;;12.59;57.71
9423;BME280;65863;49.506;10.400;2024-03-17T14:49:42;98388.00;;;12.43;58.06
9423;BME280;65863;49.506;10.400;2024-03-17T14:52:27;98410.94;;;12.47;57.45